Time;durP1;ratioP1;P1;durP2;ratioP2;P2;SDS_P1;SDS_P2;PMS_P1;PMS_P2;Temp;Humidity;BMP_temperature;BMP_pressure;BME280_temperature;BME280_humidity;BME280_pressure;Samples;Min_cycle;Max_cycle;Signal;HPM_P1;HPM_P2
2023/03/13 00:00:28;;;;;;;29.73;6.55;;;;;;;7.77;100.00;100116.09;6179620;23;20032;-80
2023/03/13 00:02:53;;;;;;;25.55;6.00;;;;;;;7.80;100.00;100108.00;6179804;23;20036;-80
2023/03/13 00:05:19;;;;;;;22.98;6.78;;;;;;;7.77;100.00;100104.63;6180099;23;20015;-79
2023/03/13 00:07:44;;;;;;;30.48;7.32;;;;;;;7.67;100.00;100083.06;6179457;23;20336;-81
2023/03/13 00:10:10;;;;;;;29.10;6.65;;;;;;;7.71;100.00;100089.94;6180673;23;20025;-80
2023/03/13 00:12:35;;;;;;;25.35;6.90;;;;;;;7.69;100.00;100086.50;6152152;23;20064;-80
2023/03/13 00:15:00;;;;;;;29.05;7.05;;;;;;;7.65;100.00;100077.88;6178725;23;20434;-81
2023/03/13 00:17:26;;;;;;;28.83;7.30;;;;;;;7.65;100.00;100071.69;6177123;23;20033;-80
2023/03/13 00:19:51;;;;;;;23.58;7.05;;;;;;;7.67;100.00;100075.13;6177200;23;20079;-80
2023/03/13 00:22:16;;;;;;;30.75;7.63;;;;;;;7.65;100.00;100069.03;6174566;23;20005;-81
2023/03/13 00:24:41;;;;;;;27.80;6.97;;;;;;;7.67;100.00;100061.88;6176669;23;20005;-80
2023/03/13 00:27:07;;;;;;;24.17;7.15;;;;;;;7.66;100.00;100050.44;6176933;23;20351;-82
2023/03/13 00:29:33;;;;;;;25.67;7.80;;;;;;;7.65;100.00;100053.16;6176324;23;20092;-80
2023/03/13 00:32:00;;;;;;;27.50;7.18;;;;;;;7.65;100.00;100039.91;6149664;23;20460;-79
2023/03/13 00:34:26;;;;;;;23.73;7.30;;;;;;;7.63;100.00;100041.78;6177598;23;20072;-81
2023/03/13 00:36:53;;;;;;;22.83;6.60;;;;;;;7.67;100.00;100035.41;6177370;23;20005;-80
2023/03/13 00:39:19;;;;;;;33.13;8.18;;;;;;;7.68;100.00;100027.38;6177981;23;20017;-79
2023/03/13 00:41:44;;;;;;;31.10;7.68;;;;;;;7.72;100.00;100030.72;6177164;23;20131;-80
2023/03/13 00:44:09;;;;;;;31.92;6.85;;;;;;;7.70;100.00;100016.72;6176045;23;20005;-81
2023/03/13 00:46:35;;;;;;;28.77;8.73;;;;;;;7.71;100.00;100008.66;6176214;23;20009;-81
2023/03/13 00:49:00;;;;;;;32.85;8.45;;;;;;;7.72;100.00;100006.88;6177561;23;20008;-81
2023/03/13 00:51:27;;;;;;;29.10;6.90;;;;;;;7.75;100.00;100001.41;6176577;23;20008;-81
2023/03/13 00:53:52;;;;;;;29.27;7.47;;;;;;;7.77;100.00;100003.97;6174475;23;20746;-80
2023/03/13 00:56:19;;;;;;;31.45;7.97;;;;;;;7.81;100.00;99998.44;6172719;23;20041;-81
2023/03/13 00:58:46;;;;;;;35.42;7.85;;;;;;;7.80;100.00;99986.13;6145235;23;20104;-81
2023/03/13 01:01:12;;;;;;;31.27;9.18;;;;;;;7.84;100.00;99979.75;6176670;23;20324;-81
2023/03/13 01:03:38;;;;;;;27.58;8.48;;;;;;;7.83;100.00;99975.38;6176302;23;20019;-81
2023/03/13 01:06:07;;;;;;;28.45;7.78;;;;;;;7.85;100.00;99975.28;6177236;23;20004;-82
2023/03/13 01:08:32;;;;;;;26.13;8.48;;;;;;;7.87;100.00;99961.03;6176155;23;20008;-80
2023/03/13 01:11:00;;;;;;;31.75;8.57;;;;;;;7.89;100.00;99960.94;6176338;23;20009;-82
2023/03/13 01:13:27;;;;;;;26.27;8.57;;;;;;;7.96;100.00;99957.03;6176132;23;20001;-81
2023/03/13 01:15:52;;;;;;;28.80;8.63;;;;;;;7.95;100.00;99942.09;6174248;23;20016;-80
2023/03/13 01:18:18;;;;;;;29.85;8.70;;;;;;;7.96;100.00;99936.69;6176015;23;20711;-81
2023/03/13 01:20:43;;;;;;;27.70;8.40;;;;;;;7.93;100.00;99920.94;6175620;23;20051;-81
2023/03/13 01:23:09;;;;;;;27.25;8.55;;;;;;;8.04;100.00;99933.63;6175669;23;20009;-81
2023/03/13 01:25:38;;;;;;;25.48;8.38;;;;;;;8.04;100.00;99922.16;6175005;23;20005;-82
2023/03/13 01:28:04;;;;;;;25.88;9.15;;;;;;;8.05;100.00;99907.97;6149457;23;20331;-82
2023/03/13 01:30:29;;;;;;;26.80;9.07;;;;;;;8.13;100.00;99903.09;6174724;23;20060;-82
2023/03/13 01:32:55;;;;;;;26.30;8.57;;;;;;;8.19;100.00;99902.75;6176168;23;20009;-81
2023/03/13 01:35:20;;;;;;;29.88;9.27;;;;;;;8.20;100.00;99892.06;6176978;23;20080;-82
2023/03/13 01:37:46;;;;;;;22.75;7.85;;;;;;;8.26;100.00;99890.00;6149834;23;20510;-82
2023/03/13 01:40:11;;;;;;;23.38;8.35;;;;;;;8.25;100.00;99881.22;6176413;23;20431;-82
2023/03/13 01:42:51;;;;;;;23.00;8.48;;;;;;;8.26;100.00;99890.00;6174441;23;20229;-82
2023/03/13 01:45:54;;;;;;;21.25;8.15;;;;;;;8.34;100.00;99875.38;6175994;23;20008;-79
2023/03/13 01:48:23;;;;;;;19.20;8.75;;;;;;;8.36;100.00;99884.13;6175566;23;20008;-81
2023/03/13 01:50:48;;;;;;;22.80;9.10;;;;;;;8.40;100.00;99880.38;6175576;23;20297;-82
2023/03/13 01:53:14;;;;;;;23.05;9.13;;;;;;;8.39;100.00;99876.00;6176457;23;20387;-81
2023/03/13 01:55:39;;;;;;;22.55;9.07;;;;;;;8.40;100.00;99872.44;6175718;23;19997;-81
2023/03/13 01:58:04;;;;;;;23.40;8.63;;;;;;;8.46;100.00;99872.06;6175965;23;20064;-80
2023/03/13 02:00:34;;;;;;;20.25;8.73;;;;;;;8.47;100.00;99871.09;6175045;23;20486;-82
2023/03/13 02:03:05;;;;;;;21.17;8.32;;;;;;;8.50;100.00;99855.97;6177021;23;20011;-81
2023/03/13 02:05:30;;;;;;;21.45;8.88;;;;;;;8.47;100.00;99841.09;6178087;23;20404;-80
2023/03/13 02:08:20;;;;;;;19.30;8.75;;;;;;;8.52;100.00;99849.63;6177609;23;20013;-81
2023/03/13 02:10:52;;;;;;;19.75;9.00;;;;;;;8.50;100.00;99821.50;6177724;23;20009;-81
2023/03/13 02:13:19;;;;;;;17.92;9.23;;;;;;;8.48;100.00;99819.81;6182933;23;20001;-80
2023/03/13 02:15:45;;;;;;;20.55;11.57;;;;;;;8.61;100.00;99822.59;6183942;23;20371;-79
2023/03/13 02:18:10;;;;;;;22.65;11.60;;;;;;;8.59;100.00;99813.00;6184052;23;20005;-81
2023/03/13 02:20:38;;;;;;;22.52;12.48;;;;;;;8.61;100.00;99806.69;6185708;23;20055;-81
2023/03/13 02:23:19;;;;;;;19.67;11.98;;;;;;;8.66;100.00;99809.06;6182440;23;20088;-80
2023/03/13 02:25:50;;;;;;;19.73;13.40;;;;;;;8.66;100.00;99777.22;6185155;23;20008;-81
2023/03/13 02:28:19;;;;;;;24.75;13.27;;;;;;;8.61;100.00;99747.44;6182213;23;20005;-80
2023/03/13 02:30:47;;;;;;;19.95;12.85;;;;;;;8.70;100.00;99774.28;6179102;23;20016;-81
2023/03/13 02:33:14;;;;;;;20.65;13.07;;;;;;;8.73;100.00;99749.34;6181493;23;20009;-80
2023/03/13 02:35:40;;;;;;;23.50;13.77;;;;;;;8.71;100.00;99753.91;6178251;23;20001;-80
2023/03/13 02:38:10;;;;;;;23.77;15.10;;;;;;;8.73;100.00;99765.28;6180554;23;20009;-80
2023/03/13 02:40:40;;;;;;;18.73;14.25;;;;;;;8.78;100.00;99771.19;6177495;23;20013;-81
2023/03/13 02:43:14;;;;;;;22.70;14.57;;;;;;;8.79;100.00;99770.22;6179179;23;20009;-82
2023/03/13 02:45:40;;;;;;;24.25;15.48;;;;;;;8.79;100.00;99759.59;6180847;23;19997;-82
2023/03/13 02:48:05;;;;;;;25.42;16.42;;;;;;;8.83;100.00;99755.81;6154832;23;20001;-81
2023/03/13 02:50:32;;;;;;;23.05;15.63;;;;;;;8.87;100.00;99753.84;6178937;23;20005;-82
2023/03/13 02:53:02;;;;;;;19.27;15.70;;;;;;;8.83;100.00;99752.31;6176133;23;20228;-82
2023/03/13 02:55:31;;;;;;;21.23;15.60;;;;;;;8.88;100.00;99751.09;6173663;23;20013;-81
2023/03/13 02:57:56;;;;;;;23.67;17.95;;;;;;;8.95;100.00;99751.56;6176256;23;20020;-81
2023/03/13 03:00:25;;;;;;;23.75;18.20;;;;;;;8.91;100.00;99740.28;6175985;23;20005;-81
2023/03/13 03:02:54;;;;;;;24.02;17.83;;;;;;;8.91;100.00;99744.75;6175708;23;20005;-82
2023/03/13 03:05:21;;;;;;;25.35;16.92;;;;;;;8.97;100.00;99755.81;6176648;23;20008;-81
2023/03/13 03:07:46;;;;;;;23.83;18.17;;;;;;;9.02;100.00;99766.16;6175293;23;20497;-80
2023/03/13 03:10:12;;;;;;;26.25;18.60;;;;;;;9.01;100.00;99758.28;6174699;23;20009;-80
2023/03/13 03:12:37;;;;;;;22.10;18.55;;;;;;;9.07;100.00;99747.28;6146691;23;20020;-80
2023/03/13 03:15:03;;;;;;;22.95;19.13;;;;;;;9.11;100.00;99764.72;6176053;23;20032;-80
2023/03/13 03:17:29;;;;;;;24.55;18.98;;;;;;;9.13;100.00;99770.81;6174791;23;20033;-79
2023/03/13 03:19:54;;;;;;;21.85;17.95;;;;;;;9.12;100.00;99748.72;6175801;23;20008;-80
2023/03/13 03:22:20;;;;;;;22.70;17.23;;;;;;;9.05;100.00;99749.19;6174799;23;20483;-80
2023/03/13 03:24:45;;;;;;;22.55;16.33;;;;;;;9.16;100.00;99754.69;6174774;23;20005;-80
2023/03/13 03:27:10;;;;;;;25.45;16.98;;;;;;;9.14;100.00;99754.78;6173979;23;20089;-80
2023/03/13 03:29:36;;;;;;;20.30;15.98;;;;;;;9.24;100.00;99757.72;6175131;23;20060;-82
2023/03/13 03:32:01;;;;;;;20.67;15.10;;;;;;;9.29;100.00;99758.28;6174235;23;20140;-81
2023/03/13 03:34:26;;;;;;;22.90;15.15;;;;;;;9.30;100.00;99764.44;6148017;23;20009;-81
2023/03/13 03:36:52;;;;;;;16.52;14.45;;;;;;;9.26;100.00;99742.53;6174552;23;20005;-82
2023/03/13 03:39:17;;;;;;;21.05;15.05;;;;;;;9.35;100.00;99747.25;6175965;23;20005;-81
2023/03/13 03:41:42;;;;;;;16.73;14.10;;;;;;;9.34;100.00;99736.75;6173091;23;20010;-81
2023/03/13 03:44:08;;;;;;;17.05;13.90;;;;;;;9.38;100.00;99739.13;6174465;23;20036;-82
2023/03/13 03:46:33;;;;;;;20.58;13.98;;;;;;;9.38;100.00;99740.91;6173799;23;20005;-82
2023/03/13 03:48:58;;;;;;;18.48;13.68;;;;;;;9.40;100.00;99742.50;6175457;23;20019;-82
2023/03/13 03:51:24;;;;;;;19.35;13.40;;;;;;;9.41;100.00;99735.41;6173172;23;20009;-82
2023/03/13 03:53:49;;;;;;;17.08;13.25;;;;;;;9.41;100.00;99728.31;6174965;23;20343;-82
2023/03/13 03:56:14;;;;;;;17.05;12.77;;;;;;;9.44;100.00;99724.56;6177162;23;20008;-80
2023/03/13 03:58:40;;;;;;;19.30;13.60;;;;;;;9.44;100.00;99725.44;6176739;23;20467;-80
2023/03/13 04:01:05;;;;;;;17.20;13.43;;;;;;;9.45;100.00;99735.13;6176575;23;20331;-82
2023/03/13 04:03:31;;;;;;;19.00;13.82;;;;;;;9.51;100.00;99733.03;6177090;23;20005;-81
2023/03/13 04:05:56;;;;;;;16.83;13.65;;;;;;;9.56;100.00;99741.53;6176559;23;20005;-81
2023/03/13 04:08:21;;;;;;;17.83;13.32;;;;;;;9.61;100.00;99719.03;6176078;23;20032;-81
2023/03/13 04:10:47;;;;;;;17.95;13.63;;;;;;;9.56;100.00;99717.63;6175637;23;20027;-81
2023/03/13 04:13:12;;;;;;;16.42;13.00;;;;;;;9.65;100.00;99720.53;6176049;23;20520;-81
2023/03/13 04:15:39;;;;;;;17.45;13.23;;;;;;;9.68;100.00;99728.31;6177066;23;20005;-82
2023/03/13 04:18:04;;;;;;;18.48;13.25;;;;;;;9.69;100.00;99722.03;6176473;23;20035;-82
2023/03/13 04:20:30;;;;;;;19.58;12.52;;;;;;;9.72;100.00;99707.72;6177100;23;20406;-81
2023/03/13 04:22:55;;;;;;;16.67;12.25;;;;;;;9.73;100.00;99706.75;6180366;23;20581;-80
2023/03/13 04:25:21;;;;;;;14.68;12.13;;;;;;;9.73;100.00;99696.13;6182442;23;20005;-81
2023/03/13 04:27:46;;;;;;;16.05;11.93;;;;;;;9.75;100.00;99696.91;6179484;23;20015;-81
2023/03/13 04:30:12;;;;;;;16.17;11.07;;;;;;;9.76;100.00;99689.78;6176489;23;20008;-82
2023/03/13 04:32:37;;;;;;;15.80;11.48;;;;;;;9.83;100.00;99697.25;6175708;23;20075;-81
2023/03/13 04:35:05;;;;;;;15.75;11.23;;;;;;;9.77;100.00;99664.91;6183035;23;20037;-80
2023/03/13 04:37:30;;;;;;;14.02;10.25;;;;;;;9.87;100.00;99680.16;6191489;23;20016;-82
2023/03/13 04:39:55;;;;;;;16.52;10.00;;;;;;;9.86;100.00;99675.75;6192368;23;20016;-81
2023/03/13 04:42:21;;;;;;;13.25;10.07;;;;;;;9.73;100.00;99656.28;6188308;23;20008;-82
2023/03/13 04:44:46;;;;;;;13.93;10.60;;;;;;;9.84;100.00;99664.38;6176631;23;20449;-82
2023/03/13 04:47:11;;;;;;;15.60;9.90;;;;;;;9.89;100.00;99664.94;6178518;23;20423;-82
2023/03/13 04:49:37;;;;;;;11.57;9.35;;;;;;;9.88;100.00;99673.88;6177869;23;20009;-80
2023/03/13 04:52:02;;;;;;;14.13;10.15;;;;;;;9.88;100.00;99659.72;6177115;23;20093;-81
2023/03/13 04:54:28;;;;;;;12.82;9.63;;;;;;;9.85;100.00;99649.28;6177755;23;20406;-81
2023/03/13 04:56:53;;;;;;;13.32;9.80;;;;;;;9.91;100.00;99651.56;6177435;23;20009;-82
2023/03/13 04:59:19;;;;;;;13.35;9.40;;;;;;;9.92;100.00;99654.09;6177258;23;20009;-82
2023/03/13 05:01:44;;;;;;;12.48;9.02;;;;;;;9.85;100.00;99652.81;6176011;23;20005;-80
2023/03/13 05:04:09;;;;;;;12.38;9.43;;;;;;;9.84;100.00;99653.75;6177245;23;20005;-81
2023/03/13 05:06:35;;;;;;;13.35;9.00;;;;;;;9.92;100.00;99656.75;6174812;23;20028;-82
2023/03/13 05:09:01;;;;;;;12.93;8.75;;;;;;;9.90;100.00;99640.06;6176979;23;20320;-82
2023/03/13 05:11:26;;;;;;;11.82;8.65;;;;;;;9.93;100.00;99639.00;6175562;23;20009;-82
2023/03/13 05:13:52;;;;;;;11.80;8.35;;;;;;;9.96;100.00;99636.16;6175660;23;20016;-82
2023/03/13 05:16:17;;;;;;;11.55;8.25;;;;;;;9.98;100.00;99647.50;6177717;23;20015;-82
2023/03/13 05:18:42;;;;;;;11.27;7.97;;;;;;;10.00;100.00;99640.31;6175803;23;20012;-82
2023/03/13 05:21:08;;;;;;;10.35;8.00;;;;;;;10.02;100.00;99627.75;6149499;23;20017;-80
2023/03/13 05:23:33;;;;;;;10.70;7.85;;;;;;;10.03;100.00;99639.22;6176030;23;20008;-81
2023/03/13 05:25:59;;;;;;;13.40;7.72;;;;;;;10.11;100.00;99636.91;6176114;23;20028;-81
2023/03/13 05:28:25;;;;;;;10.85;7.32;;;;;;;10.11;100.00;99620.94;6176617;23;20079;-83
2023/03/13 05:30:50;;;;;;;10.80;7.10;;;;;;;10.14;100.00;99631.38;6175592;23;20498;-81
2023/03/13 05:33:18;;;;;;;10.88;7.03;;;;;;;10.13;100.00;99616.38;6176577;23;20012;-80
2023/03/13 05:35:44;;;;;;;9.40;6.97;;;;;;;10.08;100.00;99582.16;6149312;23;20009;-81
2023/03/13 05:38:09;;;;;;;9.02;6.40;;;;;;;10.15;100.00;99612.66;6176987;23;20469;-81
2023/03/13 05:40:34;;;;;;;8.70;6.45;;;;;;;10.15;100.00;99614.47;6174934;23;20047;-81
2023/03/13 05:42:59;;;;;;;12.02;6.53;;;;;;;10.15;100.00;99612.66;6175858;23;20528;-81
2023/03/13 05:45:25;;;;;;;12.10;6.03;;;;;;;10.16;100.00;99624.16;6174984;23;20013;-81
2023/03/13 05:47:50;;;;;;;8.98;5.72;;;;;;;10.11;100.00;99605.84;6175554;23;20009;-82
2023/03/13 05:50:16;;;;;;;7.68;5.50;;;;;;;10.18;100.00;99608.94;6175833;23;20355;-82
2023/03/13 05:52:41;;;;;;;8.93;5.40;;;;;;;10.16;100.00;99617.03;6176100;23;20009;-80
2023/03/13 05:55:07;;;;;;;10.18;5.65;;;;;;;10.15;100.00;99617.13;6177403;23;20028;-82
2023/03/13 05:57:32;;;;;;;10.05;5.43;;;;;;;10.14;100.00;99616.28;6176613;23;20019;-80
2023/03/13 05:59:58;;;;;;;7.20;5.03;;;;;;;10.19;100.00;99621.28;6176661;23;20013;-81
2023/03/13 06:02:24;;;;;;;8.50;5.22;;;;;;;10.22;100.00;99607.78;6177018;23;20012;-82
2023/03/13 06:04:49;;;;;;;7.10;5.60;;;;;;;10.13;100.00;99622.56;6175192;23;20009;-81
2023/03/13 06:07:14;;;;;;;7.30;5.40;;;;;;;10.25;100.00;99625.38;6176969;23;20451;-80
2023/03/13 06:09:40;;;;;;;8.02;5.25;;;;;;;10.26;100.00;99630.56;6174587;23;20008;-81
2023/03/13 06:12:07;;;;;;;7.25;4.60;;;;;;;10.29;100.00;99616.22;6175818;23;20143;-81
2023/03/13 06:14:32;;;;;;;9.70;5.10;;;;;;;10.37;100.00;99608.56;6175708;23;20009;-81
2023/03/13 06:16:57;;;;;;;8.40;5.07;;;;;;;10.50;100.00;99619.19;6175646;23;20427;-81
2023/03/13 06:19:23;;;;;;;9.18;4.57;;;;;;;10.53;100.00;99618.97;6174518;23;20715;-81
2023/03/13 06:21:49;;;;;;;8.20;4.47;;;;;;;10.53;100.00;99626.94;6174893;23;20068;-81
2023/03/13 06:24:14;;;;;;;8.75;4.60;;;;;;;10.57;100.00;99615.97;6176295;23;20009;-82
2023/03/13 06:26:40;;;;;;;11.65;4.35;;;;;;;10.60;100.00;99612.25;6175711;23;20545;-82
2023/03/13 06:29:05;;;;;;;8.38;4.57;;;;;;;10.67;100.00;99618.88;6175349;23;20005;-81
2023/03/13 06:31:31;;;;;;;8.00;4.82;;;;;;;10.71;100.00;99612.38;6173874;23;20286;-80
2023/03/13 06:33:56;;;;;;;7.30;4.60;;;;;;;10.68;100.00;99600.13;6149191;23;20015;-80
2023/03/13 06:36:23;;;;;;;9.73;4.47;;;;;;;10.68;100.00;99604.59;6174231;23;20009;-81
2023/03/13 06:38:48;;;;;;;9.23;4.68;;;;;;;10.77;100.00;99608.41;6174698;23;20095;-81
2023/03/13 06:41:14;;;;;;;10.23;4.85;;;;;;;10.78;100.00;99600.28;6181287;23;20004;-79
2023/03/13 06:43:40;;;;;;;9.27;4.15;;;;;;;10.83;100.00;99602.66;6183188;23;20039;-81
2023/03/13 06:46:06;;;;;;;9.93;4.20;;;;;;;10.83;100.00;99608.81;6181831;23;20001;-80
2023/03/13 06:48:32;;;;;;;9.40;4.13;;;;;;;10.86;100.00;99603.25;6177194;23;20013;-80
2023/03/13 06:50:57;;;;;;;8.98;4.03;;;;;;;10.81;100.00;99593.91;6176128;23;20129;-80
2023/03/13 06:53:23;;;;;;;9.27;4.35;;;;;;;10.87;100.00;99615.63;6178746;23;20330;-81
2023/03/13 06:55:48;;;;;;;10.13;3.85;;;;;;;10.92;100.00;99610.81;6151214;23;20392;-82
2023/03/13 06:58:14;;;;;;;10.18;4.25;;;;;;;10.89;100.00;99607.53;6182159;23;20424;-80
2023/03/13 07:00:41;;;;;;;7.90;4.05;;;;;;;10.93;100.00;99607.19;6184375;23;20020;-80
2023/03/13 07:03:06;;;;;;;8.23;4.18;;;;;;;10.94;100.00;99594.72;6191934;23;20052;-81
2023/03/13 07:05:32;;;;;;;5.88;3.80;;;;;;;11.00;100.00;99606.78;6183465;23;20005;-82
2023/03/13 07:07:57;;;;;;;8.27;3.88;;;;;;;10.96;100.00;99592.81;6176782;23;20473;-80
2023/03/13 07:10:22;;;;;;;9.98;4.60;;;;;;;11.07;100.00;99606.19;6177483;23;20015;-82
2023/03/13 07:12:48;;;;;;;9.30;4.28;;;;;;;11.12;100.00;99598.75;6175210;23;20013;-81
2023/03/13 07:15:13;;;;;;;11.40;4.03;;;;;;;11.15;100.00;99597.66;6175591;23;20532;-81
2023/03/13 07:17:39;;;;;;;9.60;4.13;;;;;;;11.10;100.00;99590.00;6173217;23;20012;-81
2023/03/13 07:20:06;;;;;;;7.35;3.63;;;;;;;11.16;100.00;99599.34;6173904;23;20011;-83
2023/03/13 07:22:31;;;;;;;11.80;3.90;;;;;;;11.22;100.00;99593.59;6174836;23;20012;-79
2023/03/13 07:24:57;;;;;;;10.63;3.95;;;;;;;11.18;100.00;99584.13;6174710;23;20012;-82
2023/03/13 07:27:22;;;;;;;9.88;4.20;;;;;;;11.23;100.00;99593.47;6178401;23;20009;-82
2023/03/13 07:29:48;;;;;;;9.55;4.30;;;;;;;11.32;100.00;99605.25;6175115;23;20383;-81
2023/03/13 07:32:14;;;;;;;7.60;3.95;;;;;;;11.32;100.00;99599.91;6178150;23;20053;-80
2023/03/13 07:34:39;;;;;;;9.90;3.63;;;;;;;11.34;100.00;99594.50;6176650;23;20004;-80
2023/03/13 07:37:04;;;;;;;10.32;3.97;;;;;;;11.35;100.00;99599.69;6176448;23;20044;-81
2023/03/13 07:39:30;;;;;;;7.45;4.05;;;;;;;11.34;100.00;99603.34;6148628;23;20001;-81
2023/03/13 07:41:55;;;;;;;8.52;3.95;;;;;;;11.36;100.00;99595.22;6177902;23;20009;-80
2023/03/13 07:44:20;;;;;;;8.95;4.35;;;;;;;11.38;100.00;99601.31;6174319;23;20009;-81
2023/03/13 07:46:47;;;;;;;9.57;4.07;;;;;;;11.39;100.00;99595.84;6174673;23;20080;-82
2023/03/13 07:49:13;;;;;;;9.43;3.65;;;;;;;11.41;100.00;99603.72;6175623;23;20437;-80
2023/03/13 07:51:38;;;;;;;8.02;3.90;;;;;;;11.43;100.00;99600.00;6176227;23;20079;-82
2023/03/13 07:54:04;;;;;;;8.95;4.13;;;;;;;11.38;100.00;99604.81;6177332;23;20001;-81
2023/03/13 07:56:29;;;;;;;8.88;3.60;;;;;;;11.38;100.00;99603.97;6176200;23;20451;-80
2023/03/13 07:58:54;;;;;;;9.25;4.20;;;;;;;11.33;100.00;99595.44;6176065;23;20016;-80
2023/03/13 08:01:23;;;;;;;9.57;4.20;;;;;;;11.41;100.00;99603.72;6176901;23;20009;-80
2023/03/13 08:03:49;;;;;;;7.82;3.63;;;;;;;11.38;100.00;99599.47;6175892;23;20393;-80
2023/03/13 08:06:20;;;;;;;9.70;3.97;;;;;;;11.42;100.00;99592.13;6149842;23;20001;-80
2023/03/13 08:08:46;;;;;;;11.10;4.70;;;;;;;11.48;100.00;99594.31;6147038;23;20036;-81
2023/03/13 08:11:14;;;;;;;7.38;3.60;;;;;;;11.57;100.00;99598.09;6176872;23;20320;-79
2023/03/13 08:13:40;;;;;;;13.93;4.15;;;;;;;11.68;100.00;99587.50;6174106;23;20005;-80
2023/03/13 08:16:15;;;;;;;11.30;3.97;;;;;;;11.80;100.00;99597.22;6175862;23;20009;-81
2023/03/13 08:18:43;;;;;;;10.05;3.80;;;;;;;11.93;100.00;99579.38;6175330;23;20423;-80
2023/03/13 08:21:11;;;;;;;7.28;3.67;;;;;;;12.10;100.00;99587.88;6176934;23;20015;-80
2023/03/13 08:23:37;;;;;;;8.18;3.65;;;;;;;12.05;100.00;99577.59;6173681;23;20005;-81
2023/03/13 08:26:23;;;;;;;6.45;3.40;;;;;;;12.11;100.00;99581.56;6175359;23;20004;-79
2023/03/13 08:29:03;;;;;;;9.55;3.30;;;;;;;12.19;100.00;99574.69;6172755;23;20013;-81
2023/03/13 08:31:32;;;;;;;8.93;3.10;;;;;;;12.29;100.00;99579.28;6175501;23;20063;-82
2023/03/13 08:33:58;;;;;;;5.65;3.20;;;;;;;12.41;100.00;99583.66;6146870;23;20009;-81
2023/03/13 08:36:34;;;;;;;6.80;3.15;;;;;;;12.54;100.00;99573.75;6176248;23;20084;-80
2023/03/13 08:39:08;;;;;;;12.75;3.50;;;;;;;12.66;100.00;99578.09;6173119;23;20019;-81
2023/03/13 08:41:35;;;;;;;;;;;;;;;12.66;100.00;99572.75;6176321;23;20428;-81
2023/03/13 08:44:01;;;;;;;6.43;3.25;;;;;;;12.72;100.00;99579.44;6176341;23;19908;-80
2023/03/13 08:46:32;;;;;;;6.97;2.97;;;;;;;12.83;100.00;99586.56;6176360;23;20416;-82
2023/03/13 08:48:58;;;;;;;8.60;3.47;;;;;;;12.84;100.00;99570.44;6174996;23;20043;-81
2023/03/13 08:51:26;;;;;;;6.00;3.20;;;;;;;12.94;100.00;99581.22;6170541;23;20419;-82
2023/03/13 08:53:52;;;;;;;6.03;3.05;;;;;;;13.12;100.00;99571.72;6176607;23;20009;-80
2023/03/13 08:56:20;;;;;;;6.22;2.92;;;;;;;13.45;100.00;99572.63;6156044;23;20064;-80
2023/03/13 08:58:54;;;;;;;5.13;3.00;;;;;;;13.49;100.00;99528.63;6156377;23;20005;-80
2023/03/13 09:01:21;;;;;;;7.78;2.88;;;;;;;13.53;100.00;99574.66;6183339;23;20020;-80
2023/03/13 09:03:47;;;;;;;6.72;3.03;;;;;;;13.74;100.00;99559.50;6173861;23;20016;-81
2023/03/13 09:06:13;;;;;;;9.43;2.83;;;;;;;14.44;100.00;99563.31;6174340;23;20005;-80
2023/03/13 09:08:39;;;;;;;8.20;2.88;;;;;;;14.43;96.99;99562.47;6172765;23;20023;-81
2023/03/13 09:11:08;;;;;;;6.00;2.88;;;;;;;14.31;97.38;99554.66;6176172;23;20462;-80
2023/03/13 09:13:36;;;;;;;5.90;2.72;;;;;;;14.21;96.03;99546.56;6177008;23;20012;-80
2023/03/13 09:16:04;;;;;;;6.25;2.83;;;;;;;14.23;96.37;99544.59;6176752;23;20009;-81
2023/03/13 09:18:30;;;;;;;5.30;3.00;;;;;;;14.10;97.02;99552.84;6174390;23;20085;-80
2023/03/13 09:20:55;;;;;;;6.03;2.75;;;;;;;13.86;97.68;99547.75;6184068;23;20282;-79
2023/03/13 09:23:21;;;;;;;5.00;2.58;;;;;;;13.75;97.81;99537.13;6185052;23;20008;-79
2023/03/13 09:25:48;;;;;;;6.30;2.75;;;;;;;13.79;97.67;99541.22;6180706;23;20081;-79
2023/03/13 09:28:14;;;;;;;6.70;2.97;;;;;;;13.80;98.46;99542.94;6177128;23;20005;-82
2023/03/13 09:30:39;;;;;;;6.50;2.40;;;;;;;14.22;96.68;99537.56;6173393;23;20039;-81
2023/03/13 09:33:05;;;;;;;5.88;2.60;;;;;;;14.57;93.14;99528.31;6173318;23;20015;-81
2023/03/13 09:35:30;;;;;;;4.13;2.70;;;;;;;14.54;91.75;99518.69;6146495;23;20443;-80
2023/03/13 09:37:56;;;;;;;5.72;2.50;;;;;;;14.40;93.00;99513.69;6176241;23;20032;-80
2023/03/13 09:40:24;;;;;;;6.18;2.63;;;;;;;14.24;91.92;99526.72;6175320;23;20079;-80
2023/03/13 09:42:59;;;;;;;3.30;2.85;;;;;;;14.85;91.06;99494.56;6176803;23;20009;-80
2023/03/13 09:45:35;;;;;;;4.72;2.20;;;;;;;15.71;87.19;99500.09;6148226;23;20008;-80
2023/03/13 09:48:06;;;;;;;4.38;2.10;;;;;;;16.01;83.94;99481.13;6172923;23;20016;-79
2023/03/13 09:50:41;;;;;;;4.78;2.30;;;;;;;17.33;78.00;99487.88;6178294;23;20009;-81
2023/03/13 09:53:18;;;;;;;4.55;1.98;;;;;;;18.13;74.11;99466.28;6179025;23;20011;-80
2023/03/13 09:55:45;;;;;;;4.00;1.60;;;;;;;17.29;74.16;99483.81;6174433;23;20013;-80
2023/03/13 09:58:16;;;;;;;2.25;1.63;;;;;;;16.33;77.70;99478.00;6173537;23;20020;-80
2023/03/13 10:01:02;;;;;;;5.20;2.00;;;;;;;15.67;80.65;99470.03;6172253;23;20011;-81
2023/03/13 10:03:40;;;;;;;4.30;2.20;;;;;;;15.25;81.77;99472.16;6174341;23;20005;-81
2023/03/13 10:06:17;;;;;;;4.65;2.10;;;;;;;16.38;81.39;99470.34;6175591;23;20156;-82
2023/03/13 10:08:42;;;;;;;3.88;1.70;;;;;;;17.62;73.46;99468.78;6174566;23;20083;-81
2023/03/13 10:11:16;;;;;;;2.95;1.60;;;;;;;19.05;68.68;99468.19;6177100;23;20033;-81
2023/03/13 10:13:50;;;;;;;3.80;1.58;;;;;;;20.05;64.16;99470.72;6176253;23;20012;-81
2023/03/13 10:16:47;;;;;;;;;;;;;;;20.51;66.35;99477.19;6177017;23;20011;-80
2023/03/13 10:19:16;;;;;;;2.83;1.45;;;;;;;19.21;61.95;99469.22;6125323;23;19908;-80
2023/03/13 10:21:46;;;;;;;4.88;1.58;;;;;;;18.09;65.82;99454.16;6175645;23;20081;-82
2023/03/13 10:25:00;;;;;;;2.55;1.50;;;;;;;17.26;71.74;99472.53;6176331;23;20450;-81
2023/03/13 10:27:25;;;;;;;3.20;1.70;;;;;;;16.38;72.73;99459.63;6167941;23;20009;-81
2023/03/13 10:29:51;;;;;;;2.15;1.45;;;;;;;16.16;73.42;99454.63;6176176;23;20028;-82
2023/03/13 10:32:17;;;;;;;2.60;1.63;;;;;;;15.85;75.34;99451.38;6176620;23;20016;-81
2023/03/13 10:34:56;;;;;;;2.03;1.40;;;;;;;15.78;77.16;99469.88;6176149;23;20028;-80
2023/03/13 10:37:30;;;;;;;2.53;1.52;;;;;;;16.81;74.70;99463.53;6149686;23;20013;-80
2023/03/13 10:40:12;;;;;;;1.65;1.30;;;;;;;18.46;68.92;99455.69;6175661;23;20009;-81
2023/03/13 10:42:43;;;;;;;3.47;1.45;;;;;;;17.80;67.27;99427.56;6175825;23;20451;-81
2023/03/13 10:45:17;;;;;;;2.15;1.50;;;;;;;17.40;70.73;99445.94;6176490;23;20339;-81
2023/03/13 10:47:43;;;;;;;3.33;1.80;;;;;;;17.35;69.49;99444.72;6174351;23;20001;-81
2023/03/13 10:50:23;;;;;;;4.82;1.45;;;;;;;16.94;72.47;99444.34;6174824;23;20005;-81
2023/03/13 10:52:49;;;;;;;3.50;1.50;;;;;;;16.65;72.21;99426.53;6175369;23;20384;-80
2023/03/13 10:55:20;;;;;;;3.17;1.58;;;;;;;16.48;74.53;99429.19;6176426;23;20076;-81
2023/03/13 10:58:01;;;;;;;2.97;1.40;;;;;;;16.39;77.29;99437.16;6144470;23;20014;-81
2023/03/13 11:00:38;;;;;;;3.33;1.65;;;;;;;16.39;76.40;99412.16;6147767;23;20071;-81
2023/03/13 11:03:32;;;;;;;3.75;1.85;;;;;;;16.40;77.62;99432.63;6148224;23;20032;-81
2023/03/13 11:05:58;;;;;;;;;;;;;;;16.42;76.77;99431.47;6139051;23;20520;-81
2023/03/13 11:08:35;;;;;;;3.83;1.63;;;;;;;16.55;74.63;99428.44;6145677;23;19908;-80
2023/03/13 11:11:03;;;;;;;2.75;1.80;;;;;;;16.92;71.25;99419.44;6146268;23;20090;-81
2023/03/13 11:13:41;;;;;;;2.33;1.65;;;;;;;17.24;69.98;99421.59;6145261;23;20005;-81
2023/03/13 11:16:18;;;;;;;3.95;1.60;;;;;;;17.04;70.50;99417.38;6157039;23;20044;-79
2023/03/13 11:19:10;;;;;;;3.58;1.70;;;;;;;16.48;72.34;99407.72;6156281;23;20001;-80
2023/03/13 11:21:53;;;;;;;2.65;1.70;;;;;;;16.10;74.10;99428.41;6179862;23;20001;-80
2023/03/13 11:24:39;;;;;;;2.78;1.80;;;;;;;16.17;74.39;99399.94;6146518;23;20001;-80
2023/03/13 11:27:18;;;;;;;2.75;1.70;;;;;;;15.97;74.26;99401.03;6145919;23;20013;-80